createdAt,value
2023-03-21T00:01:45.219Z,10.60
2023-03-21T00:06:39.118Z,10.50
2023-03-21T00:16:32.756Z,10.50
2023-03-21T00:24:18.944Z,10.50
2023-03-21T00:26:46.166Z,10.50
2023-03-21T00:31:40.140Z,10.60
2023-03-21T00:34:06.884Z,10.60
2023-03-21T00:41:41.352Z,10.60
2023-03-21T00:44:09.641Z,10.60
2023-03-21T00:46:47.011Z,10.60
2023-03-21T00:51:44.483Z,10.50
2023-03-21T00:54:12.701Z,10.50
2023-03-21T00:56:39.493Z,10.50
2023-03-21T01:01:34.507Z,10.50
2023-03-21T01:04:07.557Z,10.50
2023-03-21T01:06:40.301Z,10.50
2023-03-21T01:09:13.063Z,10.50
2023-03-21T01:11:40.102Z,10.50
2023-03-21T01:16:53.316Z,10.50
2023-03-21T01:19:29.077Z,10.50
2023-03-21T01:21:59.876Z,10.50
2023-03-21T01:24:26.647Z,10.50
2023-03-21T01:26:53.348Z,10.50
2023-03-21T01:29:20.133Z,10.50
2023-03-21T01:31:46.860Z,10.50
2023-03-21T01:34:13.816Z,10.50
2023-03-21T01:36:40.540Z,10.50
2023-03-21T01:39:07.214Z,10.50
2023-03-21T01:41:42.902Z,10.50
2023-03-21T01:44:19.976Z,10.50
2023-03-21T01:46:57.463Z,10.50
2023-03-21T01:49:38.680Z,10.60
2023-03-21T01:52:14.147Z,10.50
2023-03-21T01:54:44.112Z,10.50
2023-03-21T01:57:25.829Z,10.50
2023-03-21T01:59:54.709Z,10.50
2023-03-21T02:02:27.536Z,10.50
2023-03-21T02:04:58.165Z,10.40
2023-03-21T02:07:31.803Z,10.40
2023-03-21T02:09:59.296Z,10.40
2023-03-21T02:12:27.198Z,10.40
2023-03-21T02:14:56.181Z,10.40
2023-03-21T02:17:33.415Z,10.40
2023-03-21T02:20:00.045Z,10.40
2023-03-21T02:22:41.842Z,10.40
2023-03-21T02:25:22.515Z,10.40
2023-03-21T02:27:57.231Z,10.40
2023-03-21T02:30:45.840Z,10.40
2023-03-21T02:33:37.108Z,10.40
2023-03-21T02:36:22.307Z,10.40
2023-03-21T02:39:00.894Z,10.30
2023-03-21T02:41:32.298Z,10.40
2023-03-21T02:44:17.368Z,10.30
2023-03-21T02:47:05.433Z,10.30
2023-03-21T02:49:54.375Z,10.30
2023-03-21T02:52:37.913Z,10.30
2023-03-21T02:55:13.824Z,10.30
2023-03-21T02:57:43.940Z,10.30
2023-03-21T03:00:17.905Z,10.30
2023-03-21T03:02:45.617Z,10.30
2023-03-21T03:05:29.442Z,10.30
2023-03-21T03:08:38.405Z,10.30
2023-03-21T03:11:15.659Z,10.30
2023-03-21T03:13:45.441Z,10.30
2023-03-21T03:16:56.505Z,10.30
2023-03-21T03:19:28.457Z,10.30
2023-03-21T03:22:16.245Z,10.30
2023-03-21T03:25:18.451Z,10.30
2023-03-21T03:27:51.199Z,10.30
2023-03-21T03:30:18.114Z,10.30
2023-03-21T03:32:56.299Z,10.20
2023-03-21T03:35:24.498Z,10.20
2023-03-21T03:37:55.891Z,10.30
2023-03-21T03:40:35.923Z,10.20
2023-03-21T03:43:10.938Z,10.10
2023-03-21T03:45:53.214Z,10.10
2023-03-21T03:48:25.149Z,10.10
2023-03-21T03:51:07.605Z,10.00
2023-03-21T03:53:40.986Z,9.90
2023-03-21T03:56:11.535Z,9.90
2023-03-21T03:58:45.269Z,9.80
2023-03-21T04:01:13.905Z,9.80
2023-03-21T04:03:49.907Z,9.90
2023-03-21T04:06:19.655Z,9.90
2023-03-21T04:08:46.403Z,9.90
2023-03-21T04:11:15.900Z,9.90
2023-03-21T04:13:42.753Z,10.00
2023-03-21T04:16:11.586Z,10.00
2023-03-21T04:18:39.236Z,10.00
2023-03-21T04:21:13.547Z,10.10
2023-03-21T04:23:41.315Z,10.00
2023-03-21T04:26:08.796Z,10.10
2023-03-21T04:28:36.905Z,10.00
2023-03-21T04:31:15.994Z,10.10
2023-03-21T04:33:50.374Z,10.10
2023-03-21T04:36:25.130Z,10.10
2023-03-21T04:38:52.433Z,10.10
2023-03-21T04:41:19.737Z,10.10
2023-03-21T04:43:47.419Z,10.10
2023-03-21T04:46:14.332Z,10.10
2023-03-21T04:48:41.158Z,10.10
2023-03-21T04:51:07.890Z,10.20
2023-03-21T04:53:34.647Z,10.20
2023-03-21T04:56:01.751Z,10.10
2023-03-21T04:58:28.435Z,10.20
2023-03-21T05:00:55.160Z,10.20
2023-03-21T05:03:21.932Z,10.20
2023-03-21T05:05:49.508Z,10.20
2023-03-21T05:08:16.339Z,10.20
2023-03-21T05:10:43.598Z,10.20
2023-03-21T05:13:10.310Z,10.20
2023-03-21T05:15:37.167Z,10.20
2023-03-21T05:18:11.388Z,10.10
2023-03-21T05:20:42.958Z,10.20
2023-03-21T05:23:11.764Z,10.20
2023-03-21T05:25:39.751Z,10.20
2023-03-21T05:28:07.954Z,10.20
2023-03-21T05:30:34.867Z,10.20
2023-03-21T05:33:01.727Z,10.20
2023-03-21T05:35:28.728Z,10.30
2023-03-21T05:37:56.081Z,10.20
2023-03-21T05:40:22.742Z,10.20
2023-03-21T05:42:50.265Z,10.20
2023-03-21T05:45:17.098Z,10.30
2023-03-21T05:47:44.041Z,10.20
2023-03-21T05:50:11.622Z,10.20
2023-03-21T05:52:38.328Z,10.30
2023-03-21T05:55:05.505Z,10.30
2023-03-21T05:57:35.147Z,10.30
2023-03-21T06:00:02.331Z,10.20
2023-03-21T06:02:29.060Z,10.30
2023-03-21T06:04:56.576Z,10.20
2023-03-21T06:07:23.419Z,10.20
2023-03-21T06:09:50.409Z,10.20
2023-03-21T06:12:17.139Z,10.20
2023-03-21T06:14:43.800Z,10.30
2023-03-21T06:17:10.480Z,10.40
2023-03-21T06:19:37.177Z,10.30
2023-03-21T06:22:03.936Z,10.30
2023-03-21T06:24:30.659Z,10.40
2023-03-21T06:26:57.321Z,10.40
2023-03-21T06:29:24.744Z,10.40
2023-03-21T06:31:51.399Z,10.40
2023-03-21T06:34:18.093Z,10.40
2023-03-21T06:36:46.677Z,10.40
2023-03-21T06:39:13.546Z,10.40
2023-03-21T06:41:40.390Z,10.40
2023-03-21T06:44:07.122Z,10.50
2023-03-21T06:46:33.820Z,10.50
2023-03-21T06:49:00.652Z,10.50
2023-03-21T06:51:27.346Z,10.60
2023-03-21T06:53:54.052Z,10.50
2023-03-21T06:56:20.883Z,10.50
2023-03-21T06:58:47.654Z,10.60
2023-03-21T07:01:14.793Z,10.70
2023-03-21T07:03:41.690Z,10.70
2023-03-21T07:06:13.976Z,10.80
2023-03-21T07:08:41.483Z,10.80
2023-03-21T07:11:09.591Z,10.80
2023-03-21T07:13:36.516Z,10.80
2023-03-21T07:16:10.917Z,10.90
2023-03-21T07:18:38.212Z,11.00
2023-03-21T07:21:05.109Z,11.00
2023-03-21T07:23:31.799Z,11.00
2023-03-21T07:25:58.637Z,11.10
2023-03-21T07:28:25.548Z,11.10
2023-03-21T07:30:57.226Z,10.90
2023-03-21T07:33:25.073Z,11.00
2023-03-21T07:35:53.396Z,10.90
2023-03-21T07:38:21.433Z,11.00
2023-03-21T07:40:48.610Z,10.90
2023-03-21T07:43:16.427Z,10.90
2023-03-21T07:45:44.046Z,10.90
2023-03-21T07:48:12.972Z,10.90
2023-03-21T07:50:41.116Z,10.90
2023-03-21T07:53:08.483Z,10.90
2023-03-21T07:55:35.834Z,10.90
2023-03-21T07:58:03.725Z,10.80
2023-03-21T08:00:31.128Z,10.80
2023-03-21T08:02:59.458Z,10.70
2023-03-21T08:05:37.733Z,10.80
2023-03-21T08:08:06.003Z,10.80
2023-03-21T08:10:32.758Z,10.80
2023-03-21T08:12:59.442Z,10.80
2023-03-21T08:15:26.386Z,10.90
2023-03-21T08:17:53.057Z,10.70
2023-03-21T08:20:21.753Z,10.80
2023-03-21T08:22:49.758Z,10.80
2023-03-21T08:25:18.165Z,10.80
2023-03-21T08:27:46.609Z,10.80
2023-03-21T08:30:15.767Z,10.90
2023-03-21T08:32:42.905Z,10.90
2023-03-21T08:35:11.884Z,10.90
2023-03-21T08:37:42.614Z,10.90
2023-03-21T08:40:13.713Z,10.90
2023-03-21T08:42:41.292Z,10.90
2023-03-21T08:45:09.225Z,10.90
2023-03-21T08:47:36.199Z,11.00
2023-03-21T08:50:06.589Z,11.00
2023-03-21T08:52:33.752Z,13.30
2023-03-21T08:55:02.233Z,11.00
2023-03-21T08:57:29.841Z,11.00
2023-03-21T08:59:57.069Z,11.10
2023-03-21T09:02:23.804Z,11.10
2023-03-21T09:04:53.087Z,11.10
2023-03-21T09:07:20.098Z,11.10
2023-03-21T09:09:53.449Z,11.20
2023-03-21T09:12:24.866Z,11.20
2023-03-21T09:19:49.239Z,11.10
2023-03-21T09:24:47.635Z,11.10
2023-03-21T09:27:17.504Z,11.00
2023-03-21T09:29:45.008Z,11.00
2023-03-21T09:32:13.333Z,11.20
2023-03-21T09:34:41.262Z,11.30
2023-03-21T09:37:13.319Z,11.50
2023-03-21T09:39:44.791Z,11.60
2023-03-21T09:42:43.226Z,11.70
2023-03-21T09:45:34.104Z,11.90
2023-03-21T09:48:02.670Z,11.90
2023-03-21T09:50:40.987Z,11.90
2023-03-21T09:53:15.346Z,11.90
2023-03-21T09:55:42.924Z,11.80
2023-03-21T09:58:28.248Z,11.70
2023-03-21T10:01:38.008Z,11.50
2023-03-21T10:04:06.884Z,11.50
2023-03-21T10:06:40.080Z,11.40
2023-03-21T10:09:22.861Z,11.50
2023-03-21T10:11:56.032Z,11.40
2023-03-21T10:14:28.412Z,11.40
2023-03-21T10:17:13.441Z,11.50
2023-03-21T10:22:09.348Z,11.40
2023-03-21T10:24:37.138Z,11.30
2023-03-21T10:27:04.935Z,11.40
2023-03-21T10:29:43.654Z,11.20
2023-03-21T10:32:13.410Z,11.10
2023-03-21T10:34:45.349Z,11.20
2023-03-21T10:37:13.394Z,11.20
2023-03-21T10:39:42.648Z,11.40
2023-03-21T10:42:23.753Z,11.50
2023-03-21T10:44:52.944Z,11.60
2023-03-21T10:47:22.447Z,10.90
2023-03-21T10:52:37.361Z,11.80
2023-03-21T10:55:17.377Z,11.80
2023-03-21T10:57:46.008Z,12.00
2023-03-21T11:00:21.411Z,12.30
2023-03-21T11:02:50.248Z,12.40
2023-03-21T11:05:23.047Z,12.60
2023-03-21T11:08:02.944Z,12.60
2023-03-21T11:10:36.868Z,12.60
2023-03-21T11:13:19.454Z,12.50
2023-03-21T11:15:58.831Z,12.60
2023-03-21T11:18:30.948Z,12.50
2023-03-21T11:21:03.657Z,12.40
2023-03-21T11:23:33.395Z,12.20
2023-03-21T11:26:02.374Z,12.30
2023-03-21T11:28:42.437Z,12.30
2023-03-21T11:31:09.575Z,12.30
2023-03-21T11:33:53.142Z,12.40
2023-03-21T11:38:58.919Z,12.50
2023-03-21T11:41:34.056Z,12.40
2023-03-21T11:44:02.249Z,12.40
2023-03-21T11:46:31.503Z,12.30
2023-03-21T11:48:59.788Z,12.20
2023-03-21T11:51:52.185Z,12.10
2023-03-21T11:54:55.729Z,12.10
2023-03-21T11:57:37.449Z,12.10
2023-03-21T12:00:29.858Z,12.00
2023-03-21T12:03:46.841Z,12.10
2023-03-21T12:06:38.393Z,12.00
2023-03-21T12:09:27.250Z,11.90
2023-03-21T12:12:18.696Z,11.80
2023-03-21T12:15:25.762Z,11.80
2023-03-21T12:18:10.807Z,11.80
2023-03-21T12:20:55.988Z,11.70
2023-03-21T12:23:37.384Z,11.70
2023-03-21T12:26:09.906Z,11.80
2023-03-21T12:29:01.529Z,11.80
2023-03-21T12:31:39.838Z,11.80
2023-03-21T12:34:52.563Z,11.90
2023-03-21T12:39:48.515Z,11.80
2023-03-21T12:42:39.331Z,11.90
2023-03-21T12:45:45.734Z,11.90
2023-03-21T12:48:33.840Z,11.90
2023-03-21T12:51:03.747Z,12.10
2023-03-21T12:53:43.856Z,12.30
2023-03-21T12:56:16.868Z,12.40
2023-03-21T12:58:50.106Z,12.60
2023-03-21T13:01:20.982Z,12.70
2023-03-21T13:04:04.449Z,12.80
2023-03-21T13:06:31.896Z,13.00
2023-03-21T13:09:28.397Z,13.00
2023-03-21T13:12:02.163Z,13.10
2023-03-21T13:14:33.832Z,13.10
2023-03-21T13:17:27.136Z,13.10
2023-03-21T13:20:08.896Z,13.20
2023-03-21T13:22:35.636Z,13.10
2023-03-21T13:25:23.007Z,13.00
2023-03-21T13:28:00.186Z,13.00
2023-03-21T13:30:32.349Z,13.00
2023-03-21T13:33:19.555Z,13.00
2023-03-21T13:36:05.070Z,12.90
2023-03-21T13:38:34.556Z,12.90
2023-03-21T13:41:15.813Z,12.90
2023-03-21T13:43:51.874Z,12.90
2023-03-21T13:46:35.971Z,12.80
2023-03-21T13:49:10.267Z,12.70
2023-03-21T13:51:37.047Z,12.80
2023-03-21T13:54:03.761Z,13.00
2023-03-21T13:56:50.367Z,13.00
2023-03-21T13:59:41.025Z,13.10
2023-03-21T14:02:33.415Z,13.10
2023-03-21T14:05:05.613Z,13.20
2023-03-21T14:07:42.795Z,13.10
2023-03-21T14:10:19.110Z,13.20
2023-03-21T14:12:47.466Z,13.20
2023-03-21T14:15:20.815Z,13.20
2023-03-21T14:17:56.295Z,13.20
2023-03-21T14:20:29.619Z,13.20
2023-03-21T14:22:56.595Z,13.10
2023-03-21T14:25:37.249Z,13.20
2023-03-21T14:28:20.656Z,13.30
2023-03-21T14:30:53.990Z,13.30
2023-03-21T14:33:32.032Z,13.30
2023-03-21T14:36:02.979Z,13.20
2023-03-21T14:38:35.649Z,13.00
2023-03-21T14:41:03.022Z,13.10
2023-03-21T14:43:33.923Z,13.00
2023-03-21T14:46:01.318Z,13.00
2023-03-21T14:48:33.935Z,13.10
2023-03-21T14:51:08.102Z,13.10
2023-03-21T14:53:41.016Z,13.10
2023-03-21T14:56:18.240Z,13.10
2023-03-21T14:58:46.814Z,13.20
2023-03-21T15:01:24.880Z,13.20
2023-03-21T15:03:52.037Z,13.30
2023-03-21T15:06:19.377Z,13.50
2023-03-21T15:09:01.645Z,15.60
2023-03-21T15:11:38.097Z,13.70
2023-03-21T15:14:11.794Z,13.70
2023-03-21T15:16:39.526Z,13.80
2023-03-21T15:19:07.758Z,13.70
2023-03-21T15:21:57.367Z,13.70
2023-03-21T15:24:34.415Z,13.80
2023-03-21T15:27:04.873Z,13.70
2023-03-21T15:29:34.242Z,13.80
2023-03-21T15:32:07.779Z,13.70
2023-03-21T15:34:36.183Z,13.80
2023-03-21T15:37:08.436Z,13.70
2023-03-21T15:39:36.405Z,13.70
2023-03-21T15:42:03.187Z,13.60
2023-03-21T15:44:30.791Z,13.60
2023-03-21T15:46:57.962Z,13.50
2023-03-21T15:49:27.275Z,13.60
2023-03-21T15:52:05.919Z,13.60
2023-03-21T15:54:55.695Z,13.70
2023-03-21T15:57:29.895Z,13.70
2023-03-21T16:00:20.946Z,13.80
2023-03-21T16:02:51.414Z,13.80
2023-03-21T16:05:18.206Z,13.80
2023-03-21T16:07:48.676Z,13.70
2023-03-21T16:10:27.011Z,13.70
2023-03-21T16:12:53.892Z,13.60
2023-03-21T16:15:20.657Z,13.50
2023-03-21T16:17:57.499Z,13.50
2023-03-21T16:20:32.604Z,13.40
2023-03-21T16:22:59.694Z,13.30
2023-03-21T16:25:26.586Z,13.20
2023-03-21T16:27:53.362Z,13.10
2023-03-21T16:30:22.136Z,13.00
2023-03-21T16:32:50.083Z,13.00
2023-03-21T16:35:17.912Z,12.90
2023-03-21T16:37:45.281Z,12.80
2023-03-21T16:40:28.042Z,12.80
2023-03-21T16:42:55.078Z,12.80
2023-03-21T16:45:23.077Z,12.90
2023-03-21T16:47:50.720Z,12.90
2023-03-21T16:50:30.966Z,13.00
2023-03-21T16:52:58.523Z,13.10
2023-03-21T16:55:25.850Z,13.00
2023-03-21T16:57:53.697Z,13.10
2023-03-21T17:00:24.575Z,13.00
2023-03-21T17:02:53.523Z,13.00
2023-03-21T17:05:26.039Z,12.80
2023-03-21T17:07:56.089Z,12.80
2023-03-21T17:10:25.809Z,12.80
2023-03-21T17:12:53.038Z,12.80
2023-03-21T17:15:20.305Z,12.80
2023-03-21T17:17:50.032Z,12.80
2023-03-21T17:20:22.272Z,12.80
2023-03-21T17:22:49.904Z,12.80
2023-03-21T17:25:17.910Z,12.80
2023-03-21T17:27:45.230Z,12.80
2023-03-21T17:30:36.710Z,12.70
2023-03-21T17:33:04.217Z,12.70
2023-03-21T17:35:31.144Z,12.60
2023-03-21T17:37:58.753Z,12.70
2023-03-21T17:40:28.730Z,12.60
2023-03-21T17:42:56.649Z,12.70
2023-03-21T17:45:24.046Z,12.60
2023-03-21T17:47:51.755Z,12.50
2023-03-21T17:50:21.221Z,12.50
2023-03-21T17:52:49.655Z,12.50
2023-03-21T17:55:19.572Z,12.50
2023-03-21T17:57:46.987Z,12.50
2023-03-21T18:00:17.939Z,12.50
2023-03-21T18:02:44.674Z,12.40
2023-03-21T18:05:11.518Z,12.50
2023-03-21T18:08:07.902Z,12.40
2023-03-21T18:10:26.779Z,12.40
2023-03-21T18:12:56.266Z,12.40
2023-03-21T18:15:24.580Z,12.30
2023-03-21T18:17:51.602Z,12.20
2023-03-21T18:20:21.593Z,12.20
2023-03-21T18:22:49.090Z,12.10
2023-03-21T18:25:16.954Z,12.00
2023-03-21T18:28:06.952Z,12.00
2023-03-21T18:30:50.368Z,12.00
2023-03-21T18:33:17.626Z,12.00
2023-03-21T18:35:44.635Z,12.00
2023-03-21T18:38:12.036Z,12.00
2023-03-21T18:40:40.714Z,12.00
2023-03-21T18:45:54.611Z,12.10
2023-03-21T18:48:21.838Z,12.10
2023-03-21T18:50:48.560Z,12.10
2023-03-21T18:53:16.423Z,12.10
2023-03-21T18:55:46.524Z,12.10
2023-03-21T18:58:15.259Z,12.20
2023-03-21T19:00:43.703Z,12.00
2023-03-21T19:03:22.176Z,12.10
2023-03-21T19:05:59.853Z,12.10
2023-03-21T19:08:27.167Z,12.20
2023-03-21T19:10:54.200Z,12.10
2023-03-21T19:13:21.284Z,12.20
2023-03-21T19:15:49.744Z,12.10
2023-03-21T19:21:03.983Z,12.10
2023-03-21T19:23:46.680Z,12.10
2023-03-21T19:26:17.825Z,12.10
2023-03-21T19:28:44.526Z,12.10
2023-03-21T19:31:11.318Z,12.10
2023-03-21T19:33:37.989Z,12.10
2023-03-21T19:36:17.685Z,12.00
2023-03-21T19:38:47.787Z,12.10
2023-03-21T19:41:14.508Z,12.00
2023-03-21T19:43:52.813Z,12.00
2023-03-21T19:46:24.490Z,12.10
2023-03-21T19:48:51.319Z,12.10
2023-03-21T19:51:28.174Z,12.10
2023-03-21T19:53:55.723Z,12.00
2023-03-21T19:56:26.462Z,12.10
2023-03-21T19:58:54.028Z,12.10
2023-03-21T20:01:21.233Z,12.10
2023-03-21T20:03:48.044Z,12.00
2023-03-21T20:06:14.816Z,12.10
2023-03-21T20:11:28.237Z,12.10
2023-03-21T20:13:55.140Z,12.10
2023-03-21T20:16:21.976Z,12.00
2023-03-21T20:18:48.750Z,12.00
2023-03-21T20:21:18.424Z,11.90
2023-03-21T20:23:50.934Z,12.00
2023-03-21T20:26:18.392Z,11.90
2023-03-21T20:29:00.276Z,11.90
2023-03-21T20:31:34.441Z,14.30
2023-03-21T20:34:01.629Z,11.80
2023-03-21T20:36:44.022Z,11.70
2023-03-21T20:39:11.097Z,11.70
2023-03-21T20:41:38.174Z,11.60
2023-03-21T20:46:51.952Z,11.50
2023-03-21T20:49:20.938Z,11.40
2023-03-21T20:54:35.154Z,11.30
2023-03-21T20:57:02.588Z,11.20
2023-03-21T20:59:29.637Z,11.10
2023-03-21T21:01:57.634Z,11.00
2023-03-21T21:04:48.259Z,11.00
2023-03-21T21:07:20.927Z,10.90
2023-03-21T21:09:48.793Z,11.10
2023-03-21T21:12:18.998Z,11.00
2023-03-21T21:14:45.912Z,11.00
2023-03-21T21:20:01.570Z,11.10
2023-03-21T21:22:28.901Z,11.20
2023-03-21T21:24:55.576Z,11.30
2023-03-21T21:27:22.392Z,11.40
2023-03-21T21:29:49.900Z,11.40
2023-03-21T21:32:18.655Z,11.50
2023-03-21T21:34:45.569Z,11.40
2023-03-21T21:37:12.388Z,11.40
2023-03-21T21:39:40.144Z,11.40
2023-03-21T21:42:06.931Z,11.30
2023-03-21T21:44:33.721Z,11.20
2023-03-21T21:47:04.090Z,11.20
2023-03-21T21:49:31.333Z,11.10
2023-03-21T21:51:59.795Z,11.10
2023-03-21T21:54:30.067Z,10.90
2023-03-21T21:56:57.929Z,11.00
2023-03-21T21:59:25.826Z,11.00
2023-03-21T22:01:52.557Z,10.90
2023-03-21T22:04:24.708Z,10.90
2023-03-21T22:06:51.373Z,10.90
2023-03-21T22:09:18.229Z,10.90
2023-03-21T22:11:44.876Z,10.90
2023-03-21T22:14:11.545Z,10.90
2023-03-21T22:16:38.305Z,10.90
2023-03-21T22:19:05.302Z,10.90
2023-03-21T22:21:31.976Z,10.90
2023-03-21T22:23:58.646Z,10.90
2023-03-21T22:26:25.598Z,10.90
2023-03-21T22:28:52.426Z,10.90
2023-03-21T22:31:19.242Z,10.90
2023-03-21T22:33:46.138Z,10.90
2023-03-21T22:36:12.969Z,10.90
2023-03-21T22:38:41.868Z,10.80
2023-03-21T22:41:08.788Z,10.80
2023-03-21T22:43:35.567Z,10.80
2023-03-21T22:46:03.901Z,10.80
2023-03-21T22:48:31.029Z,10.80
2023-03-21T22:50:59.039Z,10.70
2023-03-21T22:53:26.071Z,10.70
2023-03-21T22:55:52.793Z,10.70
2023-03-21T22:58:19.605Z,10.70
2023-03-21T23:00:47.315Z,10.70
2023-03-21T23:03:16.408Z,10.70
2023-03-21T23:05:44.677Z,10.70
2023-03-21T23:08:12.470Z,10.80
2023-03-21T23:10:40.848Z,10.80
2023-03-21T23:13:07.767Z,10.80
2023-03-21T23:15:34.493Z,10.80
2023-03-21T23:18:01.188Z,10.80
2023-03-21T23:20:28.060Z,10.80
2023-03-21T23:22:54.850Z,10.80
2023-03-21T23:25:21.813Z,10.80
2023-03-21T23:27:48.629Z,10.80
2023-03-21T23:30:15.538Z,10.80
2023-03-21T23:32:42.827Z,10.80
2023-03-21T23:35:10.224Z,10.80
2023-03-21T23:37:37.251Z,10.80
2023-03-21T23:40:06.296Z,10.80
2023-03-21T23:42:34.168Z,10.80
2023-03-21T23:45:01.074Z,10.70
2023-03-21T23:47:28.269Z,10.70
2023-03-21T23:49:54.967Z,10.70
2023-03-21T23:52:21.746Z,10.70
2023-03-21T23:54:48.658Z,10.70
2023-03-21T23:57:16.769Z,10.60
2023-03-21T23:59:43.623Z,10.70
